createdAt,value
2023-05-08T00:01:53.721Z,56.48
2023-05-08T00:04:20.181Z,56.21
2023-05-08T00:06:46.552Z,56.54
2023-05-08T00:09:12.943Z,56.18
2023-05-08T00:11:39.396Z,56.10
2023-05-08T00:14:05.731Z,56.70
2023-05-08T00:16:32.182Z,56.99
2023-05-08T00:19:00.955Z,56.99
2023-05-08T00:21:24.959Z,57.06
2023-05-08T00:23:51.380Z,57.19
2023-05-08T00:26:17.820Z,57.25
2023-05-08T00:28:44.229Z,57.22
2023-05-08T00:31:10.683Z,57.47
2023-05-08T00:33:37.077Z,57.38
2023-05-08T00:36:03.454Z,57.58
2023-05-08T00:38:29.849Z,57.54
2023-05-08T00:40:56.271Z,57.44
2023-05-08T00:43:22.674Z,57.68
2023-05-08T00:45:49.196Z,57.52
2023-05-08T00:48:15.520Z,57.40
2023-05-08T00:50:41.895Z,57.20
2023-05-08T00:53:08.331Z,57.22
2023-05-08T00:55:34.777Z,57.53
2023-05-08T00:58:01.359Z,57.35
2023-05-08T01:00:27.569Z,57.51
2023-05-08T01:02:54.134Z,57.78
2023-05-08T01:05:20.533Z,58.01
2023-05-08T01:07:46.851Z,57.87
2023-05-08T01:10:13.480Z,57.91
2023-05-08T01:12:39.666Z,57.92
2023-05-08T01:15:06.065Z,57.79
2023-05-08T01:17:32.513Z,57.74
2023-05-08T01:19:58.871Z,57.57
2023-05-08T01:22:25.268Z,57.76
2023-05-08T01:24:51.707Z,57.95
2023-05-08T01:27:18.117Z,58.14
2023-05-08T01:29:44.486Z,58.34
2023-05-08T01:32:10.920Z,58.50
2023-05-08T01:34:37.378Z,58.36
2023-05-08T01:37:03.738Z,58.48
2023-05-08T01:39:30.187Z,58.64
2023-05-08T01:41:56.664Z,58.72
2023-05-08T01:44:23.044Z,58.87
2023-05-08T01:46:49.513Z,59.00
2023-05-08T01:49:15.849Z,59.03
2023-05-08T01:51:42.268Z,59.17
2023-05-08T01:54:10.210Z,58.97
2023-05-08T01:56:34.998Z,59.20
2023-05-08T01:59:01.416Z,59.23
2023-05-08T02:01:27.863Z,59.25
2023-05-08T02:03:54.281Z,59.21
2023-05-08T02:06:20.655Z,59.24
2023-05-08T02:08:46.999Z,59.44
2023-05-08T02:11:13.419Z,59.44
2023-05-08T02:13:39.786Z,59.69
2023-05-08T02:16:06.178Z,59.77
2023-05-08T02:18:32.529Z,59.62
2023-05-08T02:20:58.959Z,59.70
2023-05-08T02:23:25.388Z,59.83
2023-05-08T02:25:51.775Z,59.92
2023-05-08T02:28:18.219Z,60.03
2023-05-08T02:30:44.636Z,60.01
2023-05-08T02:33:11.009Z,60.06
2023-05-08T02:35:37.385Z,60.29
2023-05-08T02:38:03.757Z,60.30
2023-05-08T02:40:30.197Z,60.64
2023-05-08T02:42:56.617Z,60.76
2023-05-08T02:45:23.002Z,60.92
2023-05-08T02:47:49.507Z,61.09
2023-05-08T02:50:15.966Z,61.21
2023-05-08T02:52:42.284Z,61.20
2023-05-08T02:55:08.732Z,61.14
2023-05-08T02:57:35.144Z,61.35
2023-05-08T03:00:01.598Z,61.51
2023-05-08T03:02:28.132Z,61.59
2023-05-08T03:04:54.496Z,61.68
2023-05-08T03:07:20.955Z,61.70
2023-05-08T03:09:47.386Z,61.82
2023-05-08T03:12:13.783Z,61.68
2023-05-08T03:14:40.387Z,61.85
2023-05-08T03:17:06.893Z,61.91
2023-05-08T03:19:33.372Z,61.89
2023-05-08T03:21:59.702Z,61.94
2023-05-08T03:24:26.168Z,61.89
2023-05-08T03:26:52.596Z,61.98
2023-05-08T03:29:19.042Z,62.09
2023-05-08T03:31:45.473Z,62.35
2023-05-08T03:34:11.859Z,62.52
2023-05-08T03:36:38.293Z,62.70
2023-05-08T03:39:04.697Z,62.64
2023-05-08T03:41:31.078Z,62.70
2023-05-08T03:43:57.580Z,62.85
2023-05-08T03:46:24.069Z,62.98
2023-05-08T03:48:50.417Z,62.89
2023-05-08T03:51:16.806Z,62.93
2023-05-08T03:53:43.231Z,63.01
2023-05-08T03:56:09.643Z,62.95
2023-05-08T03:58:36.151Z,63.20
2023-05-08T04:01:02.527Z,63.46
2023-05-08T04:03:29.038Z,63.38
2023-05-08T04:05:55.364Z,63.46
2023-05-08T04:08:21.774Z,63.49
2023-05-08T04:10:48.217Z,63.48
2023-05-08T04:13:14.684Z,63.52
2023-05-08T04:15:41.007Z,63.55
2023-05-08T04:18:07.600Z,63.61
2023-05-08T04:20:33.869Z,63.81
2023-05-08T04:23:00.300Z,63.60
2023-05-08T04:25:26.708Z,63.44
2023-05-08T04:27:53.164Z,63.70
2023-05-08T04:30:19.525Z,64.01
2023-05-08T04:32:46.959Z,63.98
2023-05-08T04:35:12.509Z,63.86
2023-05-08T04:37:38.723Z,63.89
2023-05-08T04:40:05.165Z,63.94
2023-05-08T04:42:31.550Z,63.91
2023-05-08T04:44:57.991Z,63.92
2023-05-08T04:47:24.487Z,63.83
2023-05-08T04:49:50.785Z,63.71
2023-05-08T04:52:17.192Z,63.59
2023-05-08T04:54:43.594Z,63.81
2023-05-08T04:57:09.964Z,63.57
2023-05-08T04:59:36.350Z,63.62
2023-05-08T05:02:02.849Z,63.69
2023-05-08T05:04:29.148Z,63.43
2023-05-08T05:06:55.629Z,63.20
2023-05-08T05:09:21.948Z,63.20
2023-05-08T05:11:48.392Z,63.09
2023-05-08T05:14:16.906Z,62.95
2023-05-08T05:16:41.361Z,62.63
2023-05-08T05:19:07.628Z,62.57
2023-05-08T05:21:34.107Z,62.27
2023-05-08T05:24:00.474Z,61.98
2023-05-08T05:26:26.944Z,61.68
2023-05-08T05:28:53.383Z,61.42
2023-05-08T05:31:19.787Z,61.43
2023-05-08T05:33:46.198Z,61.33
2023-05-08T05:36:12.707Z,61.01
2023-05-08T05:38:39.109Z,60.86
2023-05-08T05:41:05.688Z,60.51
2023-05-08T05:43:32.103Z,60.17
2023-05-08T05:45:58.442Z,59.65
2023-05-08T05:48:24.944Z,59.55
2023-05-08T05:50:51.389Z,59.04
2023-05-08T05:53:17.930Z,58.52
2023-05-08T05:55:44.359Z,58.23
2023-05-08T05:58:10.826Z,58.32
2023-05-08T06:00:37.270Z,57.71
2023-05-08T06:03:03.948Z,57.51
2023-05-08T06:05:30.162Z,57.36
2023-05-08T06:07:56.605Z,57.18
2023-05-08T06:10:22.976Z,57.04
2023-05-08T06:12:49.870Z,57.17
2023-05-08T06:15:16.264Z,57.15
2023-05-08T06:17:42.697Z,56.88
2023-05-08T06:20:09.077Z,57.00
2023-05-08T06:22:35.772Z,56.89
2023-05-08T06:25:02.128Z,56.72
2023-05-08T06:27:28.651Z,56.49
2023-05-08T06:29:55.075Z,58.37
2023-05-08T06:32:21.540Z,64.07
2023-05-08T06:34:48.059Z,66.03
2023-05-08T06:37:14.494Z,66.60
2023-05-08T06:39:40.903Z,68.64
2023-05-08T06:42:08.117Z,67.37
2023-05-08T06:44:33.784Z,65.96
2023-05-08T06:47:00.422Z,67.48
2023-05-08T06:49:26.878Z,66.95
2023-05-08T06:51:57.649Z,68.05
2023-05-08T06:54:21.877Z,67.73
2023-05-08T06:56:48.827Z,68.33
2023-05-08T06:59:15.188Z,69.73
2023-05-08T07:01:41.615Z,67.11
2023-05-08T07:04:08.075Z,68.30
2023-05-08T07:06:34.418Z,69.96
2023-05-08T07:09:00.810Z,71.85
2023-05-08T07:11:27.208Z,72.85
2023-05-08T07:13:53.581Z,72.34
2023-05-08T07:16:20.049Z,72.51
2023-05-08T07:18:46.420Z,70.56
2023-05-08T07:21:12.801Z,72.52
2023-05-08T07:23:39.233Z,73.62
2023-05-08T07:26:05.659Z,74.30
2023-05-08T07:28:32.030Z,74.97
2023-05-08T07:30:58.436Z,75.06
2023-05-08T07:33:24.906Z,74.06
2023-05-08T07:35:51.302Z,75.09
2023-05-08T07:38:17.702Z,75.45
2023-05-08T07:40:44.097Z,74.94
2023-05-08T07:43:10.505Z,75.02
2023-05-08T07:45:36.918Z,73.14
2023-05-08T07:48:03.422Z,74.22
2023-05-08T07:50:29.745Z,71.22
2023-05-08T07:52:56.110Z,70.67
2023-05-08T07:55:23.682Z,67.67
2023-05-08T07:57:50.051Z,70.44
2023-05-08T08:00:16.463Z,72.97
2023-05-08T08:02:43.306Z,72.36
2023-05-08T08:05:09.485Z,72.83
2023-05-08T08:07:35.877Z,72.50
2023-05-08T08:10:02.984Z,71.54
2023-05-08T08:12:29.359Z,72.81
2023-05-08T08:14:55.777Z,72.04
2023-05-08T08:17:22.212Z,72.91
2023-05-08T08:19:48.603Z,74.32
2023-05-08T08:22:14.978Z,74.33
2023-05-08T08:24:42.407Z,74.41
2023-05-08T08:27:08.856Z,73.79
2023-05-08T08:29:35.298Z,72.31
2023-05-08T08:32:01.787Z,72.17
2023-05-08T08:34:28.145Z,70.89
2023-05-08T08:36:54.629Z,69.67
2023-05-08T08:39:21.053Z,71.07
2023-05-08T08:41:47.468Z,70.83
2023-05-08T08:44:13.884Z,72.00
2023-05-08T08:46:40.389Z,72.40
2023-05-08T08:49:06.737Z,72.18
2023-05-08T08:51:33.155Z,71.18
2023-05-08T08:53:59.583Z,72.08
2023-05-08T08:56:27.175Z,72.43
2023-05-08T08:58:53.542Z,72.16
2023-05-08T09:01:20.033Z,72.81
2023-05-08T09:03:47.698Z,73.61
2023-05-08T09:06:13.135Z,74.14
2023-05-08T09:08:39.502Z,72.22
2023-05-08T09:11:06.060Z,69.41
2023-05-08T09:13:32.463Z,71.50
2023-05-08T09:15:58.912Z,72.60
2023-05-08T09:18:25.276Z,71.95
2023-05-08T09:20:51.685Z,73.42
2023-05-08T09:23:18.087Z,73.55
2023-05-08T09:25:44.503Z,74.29
2023-05-08T09:28:10.917Z,73.05
2023-05-08T09:30:37.307Z,73.70
2023-05-08T09:33:03.891Z,72.38
2023-05-08T09:35:30.452Z,73.36
2023-05-08T09:37:57.379Z,73.95
2023-05-08T09:40:23.316Z,72.74
2023-05-08T09:42:49.697Z,73.31
2023-05-08T09:45:16.256Z,75.53
2023-05-08T09:47:42.678Z,74.65
2023-05-08T09:50:09.108Z,70.97
2023-05-08T09:52:35.462Z,67.35
2023-05-08T09:55:01.837Z,70.99
2023-05-08T09:57:28.236Z,73.03
2023-05-08T09:59:54.692Z,69.60
2023-05-08T10:02:21.125Z,72.46
2023-05-08T10:04:49.993Z,72.17
2023-05-08T10:07:16.675Z,73.86
2023-05-08T10:09:55.207Z,71.49
2023-05-08T10:12:21.569Z,72.48
2023-05-08T10:14:48.023Z,72.51
2023-05-08T10:17:14.404Z,69.80
2023-05-08T10:19:40.836Z,67.10
2023-05-08T10:22:07.688Z,69.04
2023-05-08T10:24:34.076Z,67.47
2023-05-08T10:27:06.458Z,65.78
2023-05-08T10:29:26.870Z,64.82
2023-05-08T10:31:53.243Z,65.21
2023-05-08T10:34:19.699Z,62.62
2023-05-08T10:36:46.194Z,64.26
2023-05-08T10:39:12.598Z,62.83
2023-05-08T10:41:38.964Z,58.74
2023-05-08T10:44:05.402Z,60.31
2023-05-08T10:46:31.755Z,56.90
2023-05-08T10:48:58.135Z,58.05
2023-05-08T10:51:24.553Z,58.99
2023-05-08T10:53:50.973Z,55.86
2023-05-08T10:56:17.368Z,54.71
2023-05-08T10:58:43.819Z,57.29
2023-05-08T11:01:10.248Z,54.57
2023-05-08T11:03:36.720Z,54.51
2023-05-08T11:06:03.052Z,53.61
2023-05-08T11:08:29.664Z,56.70
2023-05-08T11:10:56.506Z,56.23
2023-05-08T11:13:23.024Z,56.12
2023-05-08T11:15:49.479Z,54.77
2023-05-08T11:18:15.747Z,55.35
2023-05-08T11:20:42.170Z,53.34
2023-05-08T11:23:08.669Z,51.79
2023-05-08T11:25:35.104Z,51.11
2023-05-08T11:28:01.643Z,50.87
2023-05-08T11:30:28.222Z,49.58
2023-05-08T11:32:54.667Z,49.03
2023-05-08T11:35:20.989Z,49.14
2023-05-08T11:37:47.451Z,49.13
2023-05-08T11:40:14.026Z,49.55
2023-05-08T11:42:40.240Z,48.01
2023-05-08T11:45:06.626Z,49.33
2023-05-08T11:47:33.983Z,48.86
2023-05-08T11:50:00.334Z,48.40
2023-05-08T11:52:26.793Z,47.35
2023-05-08T11:54:53.200Z,47.05
2023-05-08T11:57:19.607Z,46.67
2023-05-08T11:59:46.009Z,46.56
2023-05-08T12:02:12.439Z,46.62
2023-05-08T12:04:38.866Z,46.45
2023-05-08T12:07:05.195Z,45.56
2023-05-08T12:09:31.647Z,45.25
2023-05-08T12:11:58.091Z,46.43
2023-05-08T12:14:24.523Z,45.88
2023-05-08T12:16:50.908Z,45.24
2023-05-08T12:19:17.431Z,46.87
2023-05-08T12:21:43.951Z,47.22
2023-05-08T12:24:10.321Z,46.57
2023-05-08T12:26:36.784Z,46.21
2023-05-08T12:29:03.280Z,45.50
2023-05-08T12:31:29.702Z,44.49
2023-05-08T12:33:56.064Z,44.37
2023-05-08T12:36:22.561Z,43.79
2023-05-08T12:38:48.937Z,45.13
2023-05-08T12:41:15.305Z,44.99
2023-05-08T12:43:41.730Z,44.88
2023-05-08T12:46:08.235Z,44.46
2023-05-08T12:48:34.595Z,44.20
2023-05-08T12:51:01.132Z,44.21
2023-05-08T12:53:27.531Z,44.33
2023-05-08T12:55:53.900Z,44.49
2023-05-08T12:58:20.325Z,44.55
2023-05-08T13:00:47.006Z,44.00
2023-05-08T13:03:13.490Z,44.29
2023-05-08T13:05:39.823Z,45.23
2023-05-08T13:08:06.223Z,45.49
2023-05-08T13:10:32.752Z,45.98
2023-05-08T13:12:59.247Z,46.28
2023-05-08T13:15:25.596Z,46.77
2023-05-08T13:17:52.022Z,47.19
2023-05-08T13:20:18.461Z,47.74
2023-05-08T13:22:44.880Z,47.96
2023-05-08T13:25:11.444Z,48.32
2023-05-08T13:27:37.676Z,48.31
2023-05-08T13:30:04.092Z,48.55
2023-05-08T13:32:30.624Z,48.50
2023-05-08T13:35:13.395Z,48.65
2023-05-08T13:37:23.409Z,48.85
2023-05-08T13:39:49.884Z,49.25
2023-05-08T13:42:16.219Z,49.56
2023-05-08T13:44:42.611Z,49.75
2023-05-08T13:47:09.207Z,50.37
2023-05-08T13:49:35.620Z,51.11
2023-05-08T13:52:02.076Z,50.77
2023-05-08T13:54:28.489Z,50.51
2023-05-08T13:56:54.917Z,50.60
2023-05-08T13:59:21.385Z,50.81
2023-05-08T14:01:47.838Z,50.77
2023-05-08T14:04:14.219Z,51.00
2023-05-08T14:06:40.681Z,51.04
2023-05-08T14:09:07.117Z,51.14
2023-05-08T14:11:33.487Z,51.19
2023-05-08T14:13:59.992Z,51.20
2023-05-08T14:16:26.354Z,51.46
2023-05-08T14:18:52.821Z,51.70
2023-05-08T14:21:19.200Z,51.64
2023-05-08T14:23:45.758Z,52.37
2023-05-08T14:26:12.165Z,52.78
2023-05-08T14:28:38.599Z,53.12
2023-05-08T14:31:05.336Z,53.46
2023-05-08T14:33:31.697Z,53.90
2023-05-08T14:35:58.122Z,54.31
2023-05-08T14:38:24.536Z,54.53
2023-05-08T14:40:51.052Z,54.73
2023-05-08T14:43:17.396Z,55.02
2023-05-08T14:45:43.848Z,55.30
2023-05-08T14:48:10.257Z,55.30
2023-05-08T14:50:36.715Z,55.51
2023-05-08T14:53:03.225Z,55.56
2023-05-08T14:55:29.602Z,55.42
2023-05-08T14:57:55.894Z,55.71
2023-05-08T15:00:22.342Z,56.03
2023-05-08T15:02:48.786Z,56.22
2023-05-08T15:05:19.946Z,56.46
2023-05-08T15:07:42.336Z,56.53
2023-05-08T15:10:08.075Z,56.79
2023-05-08T15:12:34.459Z,56.95
2023-05-08T15:15:02.729Z,57.22
2023-05-08T15:17:27.265Z,57.28
2023-05-08T15:19:53.689Z,57.34
2023-05-08T15:22:20.128Z,57.46
2023-05-08T15:24:46.503Z,57.74
2023-05-08T15:27:12.929Z,57.68
2023-05-08T15:29:39.345Z,58.00
2023-05-08T15:32:08.100Z,58.15
2023-05-08T15:34:32.942Z,58.33
2023-05-08T15:36:58.617Z,58.49
2023-05-08T15:39:25.002Z,58.84
2023-05-08T15:41:51.440Z,59.68
2023-05-08T15:44:18.241Z,60.80
2023-05-08T15:46:44.701Z,61.51
2023-05-08T15:49:11.040Z,62.04
2023-05-08T15:51:37.448Z,62.59
2023-05-08T15:54:04.055Z,63.00
2023-05-08T15:56:30.492Z,61.77
2023-05-08T15:58:56.948Z,60.32
2023-05-08T16:01:23.510Z,59.79
2023-05-08T16:03:49.911Z,59.04
2023-05-08T16:06:17.834Z,58.80
2023-05-08T16:08:44.303Z,58.82
2023-05-08T16:11:10.671Z,58.60
2023-05-08T16:13:37.054Z,58.70
2023-05-08T16:16:03.612Z,58.57
2023-05-08T16:18:30.033Z,58.72
2023-05-08T16:20:56.435Z,58.88
2023-05-08T16:23:22.853Z,58.93
2023-05-08T16:25:49.897Z,58.72
2023-05-08T16:28:16.351Z,58.81
2023-05-08T16:30:42.831Z,58.40
2023-05-08T16:33:09.271Z,58.51
2023-05-08T16:35:35.839Z,58.53
2023-05-08T16:38:02.171Z,58.92
2023-05-08T16:40:28.539Z,58.85
2023-05-08T16:42:55.133Z,60.92
2023-05-08T16:45:21.505Z,62.44
2023-05-08T16:47:48.014Z,63.06
2023-05-08T16:50:14.422Z,61.91
2023-05-08T16:52:40.797Z,60.07
2023-05-08T16:55:07.209Z,59.53
2023-05-08T16:57:33.605Z,59.18
2023-05-08T17:00:00.049Z,59.35
2023-05-08T17:02:26.618Z,59.18
2023-05-08T17:04:52.962Z,59.13
2023-05-08T17:07:19.389Z,59.31
2023-05-08T17:09:45.913Z,59.25
2023-05-08T17:12:12.399Z,59.16
2023-05-08T17:14:38.917Z,59.42
2023-05-08T17:17:05.731Z,59.53
2023-05-08T17:19:32.167Z,59.86
2023-05-08T17:21:59.792Z,60.02
2023-05-08T17:24:25.047Z,60.61
2023-05-08T17:26:51.521Z,60.88
2023-05-08T17:29:18.028Z,61.20
2023-05-08T17:31:44.650Z,62.72
2023-05-08T17:34:11.038Z,64.83
2023-05-08T17:36:37.445Z,64.26
2023-05-08T17:39:03.918Z,64.22
2023-05-08T17:41:30.459Z,64.27
2023-05-08T17:43:56.927Z,64.46
2023-05-08T17:46:23.539Z,64.53
2023-05-08T17:48:49.728Z,64.52
2023-05-08T17:51:16.226Z,64.24
2023-05-08T17:53:42.634Z,64.39
2023-05-08T17:56:09.114Z,64.99
2023-05-08T17:58:35.516Z,65.25
2023-05-08T18:01:02.118Z,65.45
2023-05-08T18:03:28.579Z,65.94
2023-05-08T18:05:54.995Z,66.09
2023-05-08T18:08:21.412Z,66.06
2023-05-08T18:10:47.896Z,66.09
2023-05-08T18:13:14.774Z,67.16
2023-05-08T18:15:41.255Z,68.52
2023-05-08T18:18:07.541Z,68.94
2023-05-08T18:20:34.086Z,69.15
2023-05-08T18:23:00.343Z,69.20
2023-05-08T18:25:26.794Z,69.65
2023-05-08T18:28:00.777Z,69.42
2023-05-08T18:30:27.184Z,69.72
2023-05-08T18:32:53.699Z,69.31
2023-05-08T18:35:20.028Z,69.38
2023-05-08T18:37:46.458Z,69.38
2023-05-08T18:40:13.118Z,69.80
2023-05-08T18:42:39.343Z,70.16
2023-05-08T18:45:05.827Z,70.68
2023-05-08T18:47:32.257Z,69.87
2023-05-08T18:49:58.752Z,69.02
2023-05-08T18:52:25.117Z,69.25
2023-05-08T18:54:51.558Z,69.12
2023-05-08T18:57:18.002Z,68.61
2023-05-08T18:59:44.393Z,68.10
2023-05-08T19:02:10.924Z,68.25
2023-05-08T19:04:37.370Z,68.63
2023-05-08T19:07:03.825Z,68.97
2023-05-08T19:09:30.315Z,69.39
2023-05-08T19:11:56.802Z,69.84
2023-05-08T19:14:23.164Z,70.57
2023-05-08T19:16:49.571Z,70.98
2023-05-08T19:19:16.033Z,71.48
2023-05-08T19:21:42.480Z,71.48
2023-05-08T19:24:08.931Z,71.37
2023-05-08T19:26:35.413Z,71.61
2023-05-08T19:29:02.104Z,71.79
2023-05-08T19:31:28.552Z,72.13
2023-05-08T19:33:55.037Z,72.60
2023-05-08T19:36:21.451Z,73.32
2023-05-08T19:38:48.096Z,73.65
2023-05-08T19:41:14.628Z,74.02
2023-05-08T19:43:41.063Z,74.16
2023-05-08T19:46:07.516Z,74.00
2023-05-08T19:48:34.005Z,74.24
2023-05-08T19:51:00.541Z,74.13
2023-05-08T19:53:27.364Z,73.84
2023-05-08T19:55:53.843Z,73.54
2023-05-08T19:58:20.309Z,73.31
2023-05-08T20:03:13.826Z,73.41
2023-05-08T20:05:40.200Z,72.95
2023-05-08T20:08:06.536Z,72.60
2023-05-08T20:10:33.015Z,72.46
2023-05-08T20:12:59.584Z,72.21
2023-05-08T20:15:25.998Z,71.84
2023-05-08T20:17:52.379Z,71.37
2023-05-08T20:20:18.782Z,70.79
2023-05-08T20:22:45.189Z,71.23
2023-05-08T20:25:11.700Z,71.64
2023-05-08T20:27:38.039Z,71.58
2023-05-08T20:30:04.532Z,72.04
2023-05-08T20:32:31.245Z,72.32
2023-05-08T20:34:57.659Z,72.07
2023-05-08T20:37:24.100Z,71.91
2023-05-08T20:39:50.546Z,71.68
2023-05-08T20:42:17.028Z,71.56
2023-05-08T20:44:43.449Z,71.91
2023-05-08T20:47:09.883Z,71.77
2023-05-08T20:49:36.323Z,72.35
2023-05-08T20:52:02.763Z,72.49
2023-05-08T20:54:29.320Z,72.37
2023-05-08T20:56:55.896Z,72.38
2023-05-08T20:59:22.294Z,72.38
2023-05-08T21:01:48.860Z,72.19
2023-05-08T21:04:15.427Z,72.13
2023-05-08T21:06:41.843Z,71.75
2023-05-08T21:09:08.348Z,71.94
2023-05-08T21:11:34.927Z,71.96
2023-05-08T21:14:01.332Z,72.08
2023-05-08T21:16:27.777Z,72.25
2023-05-08T21:18:55.490Z,72.48
2023-05-08T21:21:20.623Z,72.49
2023-05-08T21:23:47.054Z,72.67
2023-05-08T21:26:13.574Z,72.35
2023-05-08T21:28:39.971Z,72.29
2023-05-08T21:31:06.463Z,72.27
2023-05-08T21:33:32.842Z,72.50
2023-05-08T21:35:59.338Z,72.39
2023-05-08T21:38:25.740Z,72.24
2023-05-08T21:40:52.196Z,72.54
2023-05-08T21:43:18.660Z,72.65
2023-05-08T21:45:45.051Z,72.53
2023-05-08T21:48:11.553Z,72.40
2023-05-08T21:50:37.935Z,72.44
2023-05-08T21:53:04.445Z,72.34
2023-05-08T21:55:32.251Z,72.21
2023-05-08T21:57:57.433Z,72.39
2023-05-08T22:00:23.828Z,72.44
2023-05-08T22:02:50.354Z,72.32
2023-05-08T22:05:16.754Z,72.36
2023-05-08T22:07:43.155Z,72.65
2023-05-08T22:10:09.568Z,72.88
2023-05-08T22:12:36.041Z,73.13
2023-05-08T22:15:02.503Z,73.14
2023-05-08T22:17:29.024Z,73.17
2023-05-08T22:19:55.544Z,73.27
2023-05-08T22:22:22.112Z,72.94
2023-05-08T22:24:48.518Z,72.75
2023-05-08T22:27:15.096Z,72.94
2023-05-08T22:29:41.520Z,73.11
2023-05-08T22:32:07.951Z,73.25
2023-05-08T22:34:34.324Z,73.27
2023-05-08T22:37:00.854Z,73.00
2023-05-08T22:39:29.807Z,72.92
2023-05-08T22:41:56.262Z,72.99
2023-05-08T22:44:22.622Z,73.02
2023-05-08T22:46:49.335Z,72.88
2023-05-08T22:49:15.634Z,73.04
2023-05-08T22:51:42.090Z,73.11
2023-05-08T22:54:08.540Z,73.38
2023-05-08T22:56:34.980Z,73.62
2023-05-08T22:59:01.373Z,73.91
2023-05-08T23:01:27.879Z,73.79
2023-05-08T23:03:54.219Z,73.88
2023-05-08T23:06:20.654Z,73.73
2023-05-08T23:08:47.115Z,73.70
2023-05-08T23:11:13.568Z,73.81
2023-05-08T23:13:40.093Z,73.82
2023-05-08T23:16:06.519Z,73.82
2023-05-08T23:18:32.897Z,73.92
2023-05-08T23:20:59.325Z,74.18
2023-05-08T23:23:25.802Z,74.45
2023-05-08T23:25:52.247Z,74.65
2023-05-08T23:28:18.652Z,74.88
2023-05-08T23:30:45.284Z,75.07
2023-05-08T23:33:11.764Z,75.03
2023-05-08T23:35:38.210Z,75.08
2023-05-08T23:38:04.704Z,75.09
2023-05-08T23:40:31.045Z,74.71
2023-05-08T23:42:57.432Z,74.59
2023-05-08T23:45:23.830Z,74.23
2023-05-08T23:47:50.268Z,74.28
2023-05-08T23:50:16.765Z,74.29
2023-05-08T23:52:43.100Z,74.37
2023-05-08T23:55:09.635Z,74.20
2023-05-08T23:57:36.053Z,73.99
